createdAt,value
2019-02-17T00:01:28.654Z,266.67
2019-02-17T00:03:59.430Z,238.90
2019-02-17T00:06:30.344Z,240.90
2019-02-17T00:09:01.095Z,265.10
2019-02-17T00:11:33.509Z,245.03
2019-02-17T00:14:04.346Z,230.17
2019-02-17T00:16:35.110Z,237.80
2019-02-17T00:19:05.890Z,257.30
2019-02-17T00:21:36.629Z,250.80
2019-02-17T00:24:07.789Z,220.63
2019-02-17T00:26:38.552Z,226.20
2019-02-17T00:29:09.226Z,258.30
2019-02-17T00:31:40.040Z,227.40
2019-02-17T00:34:13.738Z,248.00
2019-02-17T00:36:44.242Z,243.30
2019-02-17T00:39:15.127Z,240.60
2019-02-17T00:41:47.451Z,238.03
2019-02-17T00:44:18.222Z,216.47
2019-02-17T00:46:49.023Z,219.80
2019-02-17T00:49:19.732Z,236.07
2019-02-17T00:51:51.529Z,248.83
2019-02-17T00:54:23.006Z,248.47
2019-02-17T00:56:53.765Z,259.03
2019-02-17T00:59:24.566Z,265.50
2019-02-17T01:01:55.345Z,241.93
2019-02-17T01:04:26.088Z,242.33
2019-02-17T01:06:56.891Z,218.80
2019-02-17T01:09:27.593Z,207.87
2019-02-17T01:11:58.395Z,215.40
2019-02-17T01:14:29.149Z,214.60
2019-02-17T01:17:01.472Z,206.07
2019-02-17T01:19:32.357Z,205.00
2019-02-17T01:22:03.069Z,199.13
2019-02-17T01:24:33.734Z,225.17
2019-02-17T01:27:04.470Z,228.30
2019-02-17T01:29:35.311Z,223.50
2019-02-17T01:32:06.145Z,206.37
2019-02-17T01:34:36.815Z,176.33
2019-02-17T01:37:07.549Z,185.37
2019-02-17T01:39:38.308Z,180.10
2019-02-17T01:42:09.084Z,197.83
2019-02-17T01:44:39.895Z,218.20
2019-02-17T01:47:10.558Z,216.13
2019-02-17T01:49:41.355Z,227.30
2019-02-17T02:10:51.192Z,219.40
2019-02-17T02:13:22.746Z,207.80
2019-02-17T02:15:53.429Z,229.57
2019-02-17T02:18:25.659Z,221.63
2019-02-17T02:20:56.444Z,219.93
2019-02-17T02:23:27.178Z,239.87
2019-02-17T02:25:57.855Z,223.47
2019-02-17T02:28:28.567Z,265.07
2019-02-17T02:30:59.275Z,242.03
2019-02-17T02:33:30.692Z,229.57
2019-02-17T02:36:01.323Z,196.03
2019-02-17T02:38:31.977Z,215.20
2019-02-17T02:41:02.727Z,217.67
2019-02-17T02:43:33.387Z,238.20
2019-02-17T02:46:04.230Z,227.77
2019-02-17T02:48:34.955Z,224.23
2019-02-17T02:51:05.758Z,231.07
2019-02-17T02:53:38.018Z,233.57
2019-02-17T02:56:08.788Z,213.60
2019-02-17T02:58:39.511Z,221.27
2019-02-17T03:01:11.637Z,213.53
2019-02-17T03:03:42.383Z,246.00
2019-02-17T03:06:35.129Z,231.20
2019-02-17T03:09:07.015Z,228.37
2019-02-17T03:11:37.881Z,227.90
2019-02-17T03:14:08.671Z,237.77
2019-02-17T03:16:39.439Z,209.47
2019-02-17T03:19:10.130Z,202.60
2019-02-17T03:21:40.958Z,201.50
2019-02-17T03:24:11.895Z,214.57
2019-02-17T03:26:42.705Z,226.93
2019-02-17T03:29:13.376Z,217.97
2019-02-17T03:31:44.188Z,221.53
2019-02-17T03:34:15.034Z,227.23
2019-02-17T03:36:45.812Z,235.33
2019-02-17T03:39:16.634Z,237.77
2019-02-17T03:41:47.438Z,232.30
2019-02-17T03:44:18.183Z,246.63
2019-02-17T03:46:48.921Z,209.43
2019-02-17T03:49:19.748Z,243.77
2019-02-17T03:51:50.678Z,243.37
2019-02-17T03:54:21.496Z,223.67
2019-02-17T03:56:52.258Z,218.00
2019-02-17T03:59:22.989Z,217.63
2019-02-17T04:01:53.723Z,238.23
2019-02-17T04:04:24.492Z,256.57
2019-02-17T04:06:55.239Z,254.43
2019-02-17T04:09:26.041Z,237.07
2019-02-17T04:11:56.703Z,250.13
2019-02-17T04:14:27.670Z,222.93
2019-02-17T04:16:58.331Z,210.87
2019-02-17T04:19:29.066Z,222.20
2019-02-17T04:21:59.964Z,251.83
2019-02-17T04:24:30.749Z,251.17
2019-02-17T04:27:01.431Z,251.87
2019-02-17T04:29:32.186Z,238.43
2019-02-17T04:32:02.965Z,241.97
2019-02-17T04:34:33.788Z,227.47
2019-02-17T04:37:04.528Z,244.60
2019-02-17T04:39:35.363Z,231.23
2019-02-17T04:42:06.302Z,272.93
2019-02-17T04:44:37.084Z,275.93
2019-02-17T04:47:07.813Z,289.63
2019-02-17T04:49:38.510Z,280.80
2019-02-17T04:52:09.231Z,351.17
2019-02-17T04:54:39.989Z,294.50
2019-02-17T04:57:10.869Z,292.23
2019-02-17T04:59:41.610Z,309.03
2019-02-17T05:02:12.395Z,293.10
2019-02-17T05:04:43.103Z,288.83
2019-02-17T05:07:13.815Z,294.17
2019-02-17T05:09:45.474Z,279.30
2019-02-17T05:12:16.229Z,272.80
2019-02-17T05:14:47.016Z,269.57
2019-02-17T05:17:17.807Z,256.20
2019-02-17T05:19:48.608Z,261.97
2019-02-17T05:22:19.387Z,270.43
2019-02-17T05:24:50.118Z,250.20
2019-02-17T05:27:20.814Z,234.00
2019-02-17T05:29:51.624Z,224.53
2019-02-17T05:32:22.358Z,261.43
2019-02-17T05:34:53.125Z,256.50
2019-02-17T05:37:24.886Z,252.27
2019-02-17T05:39:55.626Z,250.23
2019-02-17T05:42:26.368Z,256.20
2019-02-17T05:44:57.102Z,204.77
2019-02-17T05:47:27.789Z,229.73
2019-02-17T05:49:58.441Z,234.10
2019-02-17T05:52:29.169Z,236.63
2019-02-17T05:54:59.918Z,224.33
2019-02-17T05:57:30.706Z,234.53
2019-02-17T06:00:01.440Z,228.03
2019-02-17T06:02:32.170Z,212.33
2019-02-17T06:05:02.982Z,268.20
2019-02-17T06:07:33.715Z,251.53
2019-02-17T06:10:04.608Z,224.47
2019-02-17T06:12:35.352Z,240.27
2019-02-17T06:15:06.210Z,253.90
2019-02-17T06:17:36.958Z,241.03
2019-02-17T06:20:08.536Z,226.80
2019-02-17T06:22:39.376Z,203.97
2019-02-17T06:25:10.140Z,177.20
2019-02-17T06:27:41.893Z,198.97
2019-02-17T06:30:12.552Z,158.07
2019-02-17T06:32:43.331Z,188.90
2019-02-17T06:35:14.170Z,150.10
2019-02-17T06:37:44.970Z,154.50
2019-02-17T06:40:15.706Z,173.90
2019-02-17T06:42:46.536Z,170.20
2019-02-17T06:45:19.635Z,145.20
2019-02-17T06:47:49.810Z,147.03
2019-02-17T06:50:22.232Z,141.27
2019-02-17T06:52:53.119Z,124.63
2019-02-17T06:55:40.819Z,145.80
2019-02-17T06:58:11.485Z,140.70
2019-02-17T07:00:53.525Z,130.87
2019-02-17T07:03:24.297Z,125.87
2019-02-17T07:06:13.998Z,123.83
2019-02-17T07:08:44.796Z,99.10
2019-02-17T07:11:15.701Z,100.57
2019-02-17T07:13:46.408Z,105.50
2019-02-17T07:16:18.710Z,102.63
2019-02-17T07:18:49.349Z,104.53
2019-02-17T07:21:20.070Z,101.50
2019-02-17T07:23:50.762Z,96.23
2019-02-17T07:26:21.582Z,88.37
2019-02-17T07:28:52.232Z,95.10
2019-02-17T07:31:22.941Z,86.17
2019-02-17T07:33:53.594Z,84.37
2019-02-17T07:36:24.218Z,88.17
2019-02-17T07:38:54.902Z,83.77
2019-02-17T07:41:27.158Z,89.50
2019-02-17T07:43:57.850Z,85.13
2019-02-17T07:46:28.554Z,77.37
2019-02-17T07:48:59.241Z,75.40
2019-02-17T07:51:29.996Z,75.00
2019-02-17T07:54:00.691Z,82.50
2019-02-17T07:56:31.511Z,77.97
2019-02-17T07:59:02.207Z,71.77
2019-02-17T08:01:32.939Z,78.63
2019-02-17T08:04:03.878Z,74.87
2019-02-17T08:06:34.610Z,70.80
2019-02-17T08:09:06.002Z,72.17
2019-02-17T08:11:41.046Z,72.47
2019-02-17T08:14:11.969Z,71.80
2019-02-17T08:16:42.812Z,69.00
2019-02-17T08:19:13.556Z,67.03
2019-02-17T08:21:44.380Z,70.23
2019-02-17T08:24:15.701Z,65.67
2019-02-17T08:26:46.574Z,73.60
2019-02-17T08:29:17.283Z,70.53
2019-02-17T08:31:55.194Z,68.27
2019-02-17T08:34:20.610Z,67.57
2019-02-17T08:36:51.289Z,68.57
2019-02-17T08:39:22.063Z,53.47
2019-02-17T08:41:52.802Z,65.30
2019-02-17T08:44:23.494Z,65.80
2019-02-17T08:46:54.227Z,72.77
2019-02-17T08:49:24.943Z,62.50
2019-02-17T08:51:55.653Z,65.40
2019-02-17T08:54:26.793Z,66.50
2019-02-17T08:56:57.529Z,58.57
2019-02-17T08:59:28.219Z,63.60
2019-02-17T09:02:05.712Z,56.73
2019-02-17T09:04:31.539Z,59.07
2019-02-17T09:07:02.349Z,61.80
2019-02-17T09:09:33.230Z,64.23
2019-02-17T09:12:03.966Z,66.67
2019-02-17T09:14:34.914Z,62.07
2019-02-17T09:17:07.170Z,59.97
2019-02-17T09:19:37.926Z,68.57
2019-02-17T09:22:08.837Z,60.43
2019-02-17T09:24:39.859Z,61.67
2019-02-17T09:27:10.647Z,60.37
2019-02-17T09:29:41.507Z,56.17
2019-02-17T09:32:16.364Z,68.47
2019-02-17T09:34:44.779Z,56.10
2019-02-17T09:37:17.317Z,57.87
2019-02-17T09:39:48.088Z,52.73
2019-02-17T09:42:19.923Z,59.67
2019-02-17T09:44:50.739Z,55.83
2019-02-17T09:47:21.799Z,59.77
2019-02-17T09:49:52.553Z,52.50
2019-02-17T09:52:23.360Z,52.77
2019-02-17T09:54:54.511Z,53.23
2019-02-17T09:57:25.364Z,57.17
2019-02-17T09:59:56.235Z,55.90
2019-02-17T10:02:27.016Z,55.57
2019-02-17T10:04:57.817Z,56.80
2019-02-17T10:07:28.635Z,52.43
2019-02-17T10:09:59.451Z,50.93
2019-02-17T10:12:31.602Z,59.67
2019-02-17T10:15:02.485Z,50.57
2019-02-17T10:17:33.393Z,51.47
2019-02-17T10:20:05.262Z,52.17
2019-02-17T10:22:36.197Z,50.73
2019-02-17T10:25:07.150Z,48.07
2019-02-17T10:27:38.822Z,50.67
2019-02-17T10:30:11.360Z,51.33
2019-02-17T10:32:42.155Z,47.90
2019-02-17T10:35:13.207Z,46.73
2019-02-17T10:37:44.002Z,48.23
2019-02-17T10:40:15.608Z,50.00
2019-02-17T10:42:46.470Z,50.33
2019-02-17T10:45:17.239Z,47.87
2019-02-17T10:47:49.623Z,49.97
2019-02-17T10:50:20.419Z,47.23
2019-02-17T10:52:51.188Z,49.73
2019-02-17T10:55:24.975Z,48.43
2019-02-17T10:57:55.963Z,45.83
2019-02-17T11:00:27.497Z,48.53
2019-02-17T11:03:04.914Z,52.23
2019-02-17T11:05:35.682Z,50.10
2019-02-17T11:08:06.477Z,53.83
2019-02-17T11:10:38.226Z,46.83
2019-02-17T11:13:09.296Z,50.27
2019-02-17T11:15:40.207Z,49.63
2019-02-17T11:18:12.707Z,47.33
2019-02-17T11:20:45.242Z,49.63
2019-02-17T11:23:16.351Z,48.10
2019-02-17T11:25:47.203Z,48.90
2019-02-17T11:28:18.037Z,46.50
2019-02-17T11:30:48.973Z,48.00
2019-02-17T11:33:20.071Z,46.00
2019-02-17T11:35:51.007Z,48.07
2019-02-17T11:38:22.715Z,46.63
2019-02-17T11:40:53.535Z,47.83
2019-02-17T11:43:24.642Z,50.57
2019-02-17T11:45:59.624Z,45.40
2019-02-17T11:48:31.936Z,43.43
2019-02-17T11:51:02.725Z,44.50
2019-02-17T11:53:33.511Z,46.43
2019-02-17T11:56:04.345Z,45.63
2019-02-17T11:58:35.120Z,47.43
2019-02-17T12:01:07.420Z,45.83
2019-02-17T12:03:38.266Z,46.60
2019-02-17T12:06:09.136Z,44.70
2019-02-17T12:08:45.535Z,47.77
2019-02-17T12:11:16.532Z,46.97
2019-02-17T12:13:47.320Z,48.20
2019-02-17T12:16:18.439Z,47.63
2019-02-17T12:18:50.694Z,47.23
2019-02-17T12:21:29.426Z,43.27
2019-02-17T12:24:18.814Z,47.83
2019-02-17T12:27:17.642Z,44.67
2019-02-17T12:29:51.821Z,45.23
2019-02-17T12:32:28.036Z,41.40
2019-02-17T12:34:58.789Z,44.67
2019-02-17T12:37:29.466Z,44.50
2019-02-17T12:40:00.294Z,41.83
2019-02-17T12:42:31.060Z,42.23
2019-02-17T12:45:01.851Z,40.93
2019-02-17T12:47:33.660Z,40.53
2019-02-17T12:50:05.098Z,41.37
2019-02-17T12:52:35.858Z,44.67
2019-02-17T12:55:06.790Z,46.47
2019-02-17T12:57:37.607Z,42.73
2019-02-17T13:00:11.756Z,38.93
2019-02-17T13:02:42.511Z,39.47
2019-02-17T13:05:13.300Z,44.63
2019-02-17T13:07:44.202Z,39.27
2019-02-17T13:10:14.972Z,39.87
2019-02-17T13:12:46.371Z,40.27
2019-02-17T13:15:17.213Z,40.70
2019-02-17T13:17:48.145Z,41.77
2019-02-17T13:20:19.155Z,38.60
2019-02-17T13:22:51.728Z,43.57
2019-02-17T13:25:22.931Z,41.67
2019-02-17T13:27:53.726Z,38.47
2019-02-17T13:30:24.524Z,40.43
2019-02-17T13:32:56.994Z,41.83
2019-02-17T13:35:27.802Z,40.17
2019-02-17T13:37:58.634Z,37.43
2019-02-17T13:40:29.523Z,43.03
2019-02-17T13:43:00.378Z,39.93
2019-02-17T13:45:31.187Z,42.50
2019-02-17T13:48:01.892Z,41.07
2019-02-17T13:50:32.766Z,41.40
2019-02-17T13:53:11.402Z,41.33
2019-02-17T13:55:36.089Z,39.63
2019-02-17T13:58:06.893Z,40.63
2019-02-17T14:00:37.691Z,40.53
2019-02-17T14:03:10.202Z,44.43
2019-02-17T14:05:42.519Z,39.27
2019-02-17T14:08:13.271Z,38.33
2019-02-17T14:10:44.104Z,40.13
2019-02-17T14:13:15.164Z,40.33
2019-02-17T14:15:46.390Z,40.67
2019-02-17T14:18:17.800Z,37.53
2019-02-17T14:20:48.639Z,40.93
2019-02-17T14:23:19.423Z,42.13
2019-02-17T14:25:50.279Z,42.60
2019-02-17T14:28:21.090Z,41.03
2019-02-17T14:30:52.898Z,42.10
2019-02-17T14:33:23.719Z,39.73
2019-02-17T14:35:54.542Z,39.43
2019-02-17T14:38:25.290Z,45.77
2019-02-17T14:40:55.989Z,37.47
2019-02-17T14:43:26.802Z,40.30
2019-02-17T14:45:57.567Z,42.27
2019-02-17T14:48:28.321Z,39.70
2019-02-17T14:50:59.074Z,43.00
2019-02-17T14:53:29.822Z,43.37
2019-02-17T14:56:00.697Z,41.37
2019-02-17T14:58:31.457Z,40.97
2019-02-17T15:01:02.626Z,40.63
2019-02-17T15:03:34.744Z,43.47
2019-02-17T15:06:06.210Z,42.90
2019-02-17T15:08:37.850Z,41.03
2019-02-17T15:11:08.932Z,42.67
2019-02-17T15:13:40.399Z,41.53
2019-02-17T15:16:12.103Z,42.37
2019-02-17T15:18:50.943Z,38.07
2019-02-17T15:21:22.260Z,40.20
2019-02-17T15:23:53.203Z,42.47
2019-02-17T15:26:23.973Z,40.83
2019-02-17T15:28:56.206Z,42.13
2019-02-17T15:31:27.840Z,43.43
2019-02-17T15:33:58.645Z,44.73
2019-02-17T15:36:31.002Z,41.57
2019-02-17T15:39:02.540Z,45.83
2019-02-17T15:41:34.378Z,44.43
2019-02-17T15:44:05.133Z,39.17
2019-02-17T15:46:36.073Z,41.73
2019-02-17T15:49:07.553Z,39.97
2019-02-17T15:51:40.236Z,41.17
2019-02-17T15:54:12.946Z,39.33
2019-02-17T15:56:44.315Z,39.13
2019-02-17T15:59:15.334Z,43.93
2019-02-17T16:01:46.032Z,41.87
2019-02-17T16:04:17.583Z,48.07
2019-02-17T16:06:51.043Z,40.03
2019-02-17T16:09:22.293Z,43.13
2019-02-17T16:11:53.634Z,39.93
2019-02-17T16:14:24.952Z,39.93
2019-02-17T16:16:56.607Z,40.57
2019-02-17T16:23:21.471Z,40.30
2019-02-17T16:25:52.837Z,41.50
2019-02-17T16:28:24.480Z,40.40
2019-02-17T16:30:55.220Z,40.43
2019-02-17T16:33:25.949Z,37.70
2019-02-17T16:35:56.708Z,42.50
2019-02-17T16:38:27.428Z,36.57
2019-02-17T16:40:58.363Z,36.73
2019-02-17T16:43:29.117Z,40.10
2019-02-17T16:45:59.851Z,37.80
2019-02-17T16:48:30.596Z,38.63
2019-02-17T16:51:01.449Z,35.07
2019-02-17T16:53:32.205Z,39.23
2019-02-17T16:56:03.058Z,38.73
2019-02-17T16:58:33.808Z,37.73
2019-02-17T17:01:05.989Z,38.37
2019-02-17T17:03:36.831Z,35.87
2019-02-17T17:06:07.664Z,34.77
2019-02-17T17:08:38.402Z,37.40
2019-02-17T17:11:09.227Z,38.47
2019-02-17T17:13:39.918Z,41.77
2019-02-17T17:16:10.747Z,41.40
2019-02-17T17:18:41.416Z,44.37
2019-02-17T17:21:12.191Z,39.23
2019-02-17T17:23:43.183Z,40.50
2019-02-17T17:26:14.808Z,42.60
2019-02-17T17:28:45.438Z,173.93
2019-02-17T17:31:16.449Z,44.83
2019-02-17T17:33:47.270Z,41.07
2019-02-17T17:36:18.033Z,43.90
2019-02-17T17:38:48.771Z,38.50
2019-02-17T17:41:19.429Z,40.73
2019-02-17T17:43:50.507Z,44.33
2019-02-17T17:46:21.326Z,44.83
2019-02-17T17:48:52.147Z,46.53
2019-02-17T17:51:22.881Z,45.83
2019-02-17T17:53:53.509Z,45.20
2019-02-17T17:56:24.250Z,126.07
2019-02-17T17:58:55.183Z,50.47
2019-02-17T18:01:25.929Z,47.17
2019-02-17T18:03:56.677Z,45.60
2019-02-17T18:06:27.402Z,47.23
2019-02-17T18:08:58.162Z,49.27
2019-02-17T18:11:28.942Z,45.93
2019-02-17T18:13:59.747Z,45.37
2019-02-17T18:16:30.542Z,49.70
2019-02-17T18:19:01.208Z,47.37
2019-02-17T18:21:31.913Z,59.60
2019-02-17T18:24:02.722Z,44.53
2019-02-17T18:26:33.492Z,108.67
2019-02-17T18:29:04.291Z,42.20
2019-02-17T18:31:35.353Z,42.00
2019-02-17T18:34:06.286Z,80.33
2019-02-17T18:36:37.499Z,38.80
2019-02-17T18:39:09.386Z,44.73
2019-02-17T18:41:40.278Z,38.40
2019-02-17T18:44:11.077Z,212.50
2019-02-17T18:46:41.883Z,50.53
2019-02-17T18:49:13.042Z,480.37
2019-02-17T18:51:43.826Z,103.23
2019-02-17T18:54:14.684Z,48.17
2019-02-17T18:56:46.714Z,38.13
2019-02-17T18:59:17.567Z,44.87
2019-02-17T19:01:48.601Z,34.67
2019-02-17T19:04:19.383Z,41.07
2019-02-17T19:06:50.399Z,52.67
2019-02-17T19:09:21.204Z,36.70
2019-02-17T19:11:52.167Z,36.97
2019-02-17T19:14:23.981Z,37.53
2019-02-17T19:16:54.809Z,46.67
2019-02-17T19:19:25.685Z,42.67
2019-02-17T19:21:56.570Z,242.93
2019-02-17T19:24:27.368Z,59.00
2019-02-17T19:26:58.199Z,39.97
2019-02-17T19:29:29.012Z,204.33
2019-02-17T19:31:59.850Z,51.70
2019-02-17T19:34:30.672Z,41.10
2019-02-17T19:37:01.429Z,35.57
2019-02-17T19:39:32.386Z,34.23
2019-02-17T19:42:03.170Z,33.20
2019-02-17T19:44:34.057Z,37.97
2019-02-17T19:47:04.845Z,35.73
2019-02-17T19:49:35.619Z,42.83
2019-02-17T19:52:06.626Z,38.77
2019-02-17T19:54:38.915Z,36.07
2019-02-17T19:57:11.198Z,40.33
2019-02-17T19:59:42.082Z,36.57
2019-02-17T20:02:13.003Z,35.70
2019-02-17T20:04:46.821Z,35.20
2019-02-17T20:07:17.558Z,34.80
2019-02-17T20:09:48.351Z,33.03
2019-02-17T20:12:19.221Z,39.07
2019-02-17T20:14:50.066Z,34.87
2019-02-17T20:17:20.830Z,31.07
2019-02-17T20:19:51.611Z,34.60
2019-02-17T20:22:22.558Z,35.73
2019-02-17T20:24:53.344Z,35.17
2019-02-17T20:27:24.229Z,35.93
2019-02-17T20:29:54.957Z,37.60
2019-02-17T20:32:27.301Z,34.30
2019-02-17T20:34:58.112Z,37.37
2019-02-17T20:37:29.021Z,37.60
2019-02-17T20:40:01.007Z,59.67
2019-02-17T20:42:33.115Z,50.23
2019-02-17T20:45:03.998Z,36.33
2019-02-17T20:47:34.777Z,37.70
2019-02-17T20:50:37.918Z,32.03
2019-02-17T20:53:14.399Z,32.67
2019-02-17T20:55:45.284Z,38.50
2019-02-17T20:58:17.024Z,30.90
2019-02-17T21:00:47.744Z,35.23
2019-02-17T21:03:19.298Z,36.00
2019-02-17T21:05:50.117Z,34.87
2019-02-17T21:08:21.025Z,35.27
2019-02-17T21:10:52.023Z,33.27
2019-02-17T21:13:23.766Z,33.57
2019-02-17T21:15:54.770Z,32.77
2019-02-17T21:18:26.932Z,36.27
2019-02-17T21:20:57.938Z,34.10
2019-02-17T21:23:29.272Z,29.97
2019-02-17T21:26:00.098Z,31.40
2019-02-17T21:28:30.921Z,29.27
2019-02-17T21:31:01.838Z,27.83
2019-02-17T21:33:32.744Z,28.90
2019-02-17T21:36:03.518Z,32.93
2019-02-17T21:38:34.278Z,28.10
2019-02-17T21:41:09.448Z,32.70
2019-02-17T21:43:37.459Z,27.37
2019-02-17T21:46:08.235Z,29.70
2019-02-17T21:48:39.067Z,28.73
2019-02-17T21:51:09.802Z,28.93
2019-02-17T21:53:40.670Z,26.97
2019-02-17T21:56:11.529Z,26.93
2019-02-17T21:58:42.387Z,27.70
2019-02-17T22:01:13.823Z,26.73
2019-02-17T22:03:44.626Z,26.20
2019-02-17T22:06:15.382Z,29.00
2019-02-17T22:08:46.139Z,28.50
2019-02-17T22:11:17.306Z,26.97
2019-02-17T22:13:48.098Z,27.10
2019-02-17T22:16:20.286Z,27.53
2019-02-17T22:18:51.102Z,27.57
2019-02-17T22:21:21.877Z,27.27
2019-02-17T22:23:52.718Z,34.43
2019-02-17T22:26:24.606Z,26.37
2019-02-17T22:28:55.836Z,27.50
2019-02-17T22:31:26.866Z,29.77
2019-02-17T22:33:57.598Z,31.27
2019-02-17T22:36:30.494Z,27.27
2019-02-17T22:39:02.213Z,29.40
2019-02-17T22:41:32.949Z,30.60
2019-02-17T22:44:03.788Z,32.70
2019-02-17T22:46:34.599Z,32.30
2019-02-17T22:49:05.358Z,27.83
2019-02-17T22:51:37.162Z,30.13
2019-02-17T22:54:07.897Z,28.63
2019-02-17T22:56:38.759Z,30.30
2019-02-17T22:59:09.613Z,29.33
2019-02-17T23:01:40.382Z,30.20
2019-02-17T23:04:11.566Z,26.90
2019-02-17T23:06:42.328Z,28.87
2019-02-17T23:09:14.615Z,28.43
2019-02-17T23:11:45.594Z,29.63
2019-02-17T23:14:16.411Z,30.37
2019-02-17T23:16:47.190Z,27.97
2019-02-17T23:19:17.943Z,28.30
2019-02-17T23:21:48.948Z,28.20
2019-02-17T23:24:20.097Z,31.07
2019-02-17T23:26:50.984Z,32.10
2019-02-17T23:29:23.265Z,34.57
2019-02-17T23:31:54.062Z,29.83
2019-02-17T23:34:25.264Z,34.90
2019-02-17T23:37:03.829Z,31.83
2019-02-17T23:39:28.866Z,34.17
2019-02-17T23:41:59.733Z,35.37
2019-02-17T23:44:30.617Z,31.53
2019-02-17T23:47:01.950Z,34.00
2019-02-17T23:49:32.845Z,30.93
2019-02-17T23:52:04.282Z,36.17
2019-02-17T23:54:35.063Z,30.37
2019-02-17T23:57:06.231Z,33.93
2019-02-17T23:59:37.080Z,34.17
